sensor_id;sensor_type;location;lat;lon;timestamp;temperature;humidity
66962;HTU21D;53897;51.126;5.868;2023-06-04T00:00:06;25.67;40.27
66962;HTU21D;53897;51.126;5.868;2023-06-04T00:02:32;25.65;40.28
66962;HTU21D;53897;51.126;5.868;2023-06-04T00:04:58;25.65;40.28
66962;HTU21D;53897;51.126;5.868;2023-06-04T00:07:24;25.63;40.27
66962;HTU21D;53897;51.126;5.868;2023-06-04T00:09:50;25.63;40.27
66962;HTU21D;53897;51.126;5.868;2023-06-04T00:12:15;25.62;40.25
66962;HTU21D;53897;51.126;5.868;2023-06-04T00:14:42;25.61;40.22
66962;HTU21D;53897;51.126;5.868;2023-06-04T00:17:09;25.61;40.18
66962;HTU21D;53897;51.126;5.868;2023-06-04T00:19:35;25.61;40.26
66962;HTU21D;53897;51.126;5.868;2023-06-04T00:22:01;25.59;40.20
66962;HTU21D;53897;51.126;5.868;2023-06-04T00:24:26;25.60;40.17
66962;HTU21D;53897;51.126;5.868;2023-06-04T00:26:52;25.58;40.18
66962;HTU21D;53897;51.126;5.868;2023-06-04T00:29:18;25.58;40.10
66962;HTU21D;53897;51.126;5.868;2023-06-04T00:31:43;25.56;40.06
66962;HTU21D;53897;51.126;5.868;2023-06-04T00:34:10;25.54;40.01
66962;HTU21D;53897;51.126;5.868;2023-06-04T00:36:36;25.54;40.03
66962;HTU21D;53897;51.126;5.868;2023-06-04T00:39:02;25.54;40.01
66962;HTU21D;53897;51.126;5.868;2023-06-04T00:41:28;25.53;40.01
66962;HTU21D;53897;51.126;5.868;2023-06-04T00:43:54;25.52;39.95
66962;HTU21D;53897;51.126;5.868;2023-06-04T00:46:25;25.52;39.91
66962;HTU21D;53897;51.126;5.868;2023-06-04T00:48:53;25.51;39.92
66962;HTU21D;53897;51.126;5.868;2023-06-04T00:51:20;25.50;39.91
66962;HTU21D;53897;51.126;5.868;2023-06-04T00:53:50;25.49;39.88
66962;HTU21D;53897;51.126;5.868;2023-06-04T00:56:16;25.48;39.84
66962;HTU21D;53897;51.126;5.868;2023-06-04T00:58:42;25.48;39.81
66962;HTU21D;53897;51.126;5.868;2023-06-04T01:01:36;25.47;39.78
66962;HTU21D;53897;51.126;5.868;2023-06-04T01:04:05;25.47;39.75
66962;HTU21D;53897;51.126;5.868;2023-06-04T01:06:47;25.46;39.72
66962;HTU21D;53897;51.126;5.868;2023-06-04T01:09:15;25.44;39.74
66962;HTU21D;53897;51.126;5.868;2023-06-04T01:11:41;25.46;39.72
66962;HTU21D;53897;51.126;5.868;2023-06-04T01:14:09;25.43;39.75
66962;HTU21D;53897;51.126;5.868;2023-06-04T01:22:14;25.40;39.71
66962;HTU21D;53897;51.126;5.868;2023-06-04T01:24:53;25.40;39.69
66962;HTU21D;53897;51.126;5.868;2023-06-04T01:27:22;25.39;39.75
66962;HTU21D;53897;51.126;5.868;2023-06-04T01:29:48;25.38;39.75
66962;HTU21D;53897;51.126;5.868;2023-06-04T01:32:16;25.37;39.81
66962;HTU21D;53897;51.126;5.868;2023-06-04T01:34:46;25.36;39.81
66962;HTU21D;53897;51.126;5.868;2023-06-04T01:37:12;25.37;39.70
66962;HTU21D;53897;51.126;5.868;2023-06-04T01:39:38;25.35;39.65
66962;HTU21D;53897;51.126;5.868;2023-06-04T01:42:04;25.35;39.65
66962;HTU21D;53897;51.126;5.868;2023-06-04T01:44:30;25.33;39.62
66962;HTU21D;53897;51.126;5.868;2023-06-04T01:46:56;25.34;39.58
66962;HTU21D;53897;51.126;5.868;2023-06-04T01:49:21;25.32;39.58
66962;HTU21D;53897;51.126;5.868;2023-06-04T01:51:47;25.32;39.51
66962;HTU21D;53897;51.126;5.868;2023-06-04T01:54:13;25.30;39.45
66962;HTU21D;53897;51.126;5.868;2023-06-04T01:56:39;25.29;39.39
66962;HTU21D;53897;51.126;5.868;2023-06-04T01:59:05;25.30;39.37
66962;HTU21D;53897;51.126;5.868;2023-06-04T02:01:30;25.29;39.34
66962;HTU21D;53897;51.126;5.868;2023-06-04T02:03:56;25.28;39.40
66962;HTU21D;53897;51.126;5.868;2023-06-04T02:06:22;25.27;39.36
66962;HTU21D;53897;51.126;5.868;2023-06-04T02:08:50;25.25;39.40
66962;HTU21D;53897;51.126;5.868;2023-06-04T02:11:16;25.24;39.38
66962;HTU21D;53897;51.126;5.868;2023-06-04T02:13:42;25.24;39.40
66962;HTU21D;53897;51.126;5.868;2023-06-04T02:16:07;25.23;39.33
66962;HTU21D;53897;51.126;5.868;2023-06-04T02:18:33;25.23;39.32
66962;HTU21D;53897;51.126;5.868;2023-06-04T02:20:59;25.22;39.27
66962;HTU21D;53897;51.126;5.868;2023-06-04T02:23:25;25.22;39.18
66962;HTU21D;53897;51.126;5.868;2023-06-04T02:25:53;25.21;39.13
66962;HTU21D;53897;51.126;5.868;2023-06-04T02:28:20;25.19;39.06
66962;HTU21D;53897;51.126;5.868;2023-06-04T02:30:46;25.19;39.08
66962;HTU21D;53897;51.126;5.868;2023-06-04T02:33:12;25.18;39.08
66962;HTU21D;53897;51.126;5.868;2023-06-04T02:35:38;25.18;39.13
66962;HTU21D;53897;51.126;5.868;2023-06-04T02:38:04;25.16;39.05
66962;HTU21D;53897;51.126;5.868;2023-06-04T02:40:30;25.16;39.02
66962;HTU21D;53897;51.126;5.868;2023-06-04T02:42:56;25.14;39.05
66962;HTU21D;53897;51.126;5.868;2023-06-04T02:45:23;25.14;39.04
66962;HTU21D;53897;51.126;5.868;2023-06-04T02:47:48;25.13;39.07
66962;HTU21D;53897;51.126;5.868;2023-06-04T02:50:15;25.12;39.04
66962;HTU21D;53897;51.126;5.868;2023-06-04T02:52:42;25.10;39.02
66962;HTU21D;53897;51.126;5.868;2023-06-04T02:55:08;25.10;39.01
66962;HTU21D;53897;51.126;5.868;2023-06-04T02:57:35;25.09;39.01
66962;HTU21D;53897;51.126;5.868;2023-06-04T03:00:02;25.09;38.97
66962;HTU21D;53897;51.126;5.868;2023-06-04T03:02:40;25.08;38.95
66962;HTU21D;53897;51.126;5.868;2023-06-04T03:05:09;25.08;38.98
66962;HTU21D;53897;51.126;5.868;2023-06-04T03:07:37;25.07;38.96
66962;HTU21D;53897;51.126;5.868;2023-06-04T03:10:03;25.06;38.93
66962;HTU21D;53897;51.126;5.868;2023-06-04T03:12:31;25.06;38.96
66962;HTU21D;53897;51.126;5.868;2023-06-04T03:14:56;25.05;38.88
66962;HTU21D;53897;51.126;5.868;2023-06-04T03:17:22;25.05;38.88
66962;HTU21D;53897;51.126;5.868;2023-06-04T03:19:48;25.03;38.90
66962;HTU21D;53897;51.126;5.868;2023-06-04T03:22:14;25.03;38.92
66962;HTU21D;53897;51.126;5.868;2023-06-04T03:24:41;25.03;38.94
66962;HTU21D;53897;51.126;5.868;2023-06-04T03:27:09;25.02;38.91
66962;HTU21D;53897;51.126;5.868;2023-06-04T03:29:37;25.01;38.88
66962;HTU21D;53897;51.126;5.868;2023-06-04T03:32:05;25.00;38.88
66962;HTU21D;53897;51.126;5.868;2023-06-04T03:34:31;24.99;38.85
66962;HTU21D;53897;51.126;5.868;2023-06-04T03:36:57;24.99;38.80
66962;HTU21D;53897;51.126;5.868;2023-06-04T03:39:24;24.98;38.82
66962;HTU21D;53897;51.126;5.868;2023-06-04T03:41:50;24.98;38.75
66962;HTU21D;53897;51.126;5.868;2023-06-04T03:44:17;24.95;38.69
66962;HTU21D;53897;51.126;5.868;2023-06-04T03:46:45;24.93;38.75
66962;HTU21D;53897;51.126;5.868;2023-06-04T03:49:13;24.90;38.80
66962;HTU21D;53897;51.126;5.868;2023-06-04T03:51:40;24.89;38.83
66962;HTU21D;53897;51.126;5.868;2023-06-04T03:54:06;24.85;38.90
66962;HTU21D;53897;51.126;5.868;2023-06-04T03:56:32;24.82;38.94
66962;HTU21D;53897;51.126;5.868;2023-06-04T03:58:59;24.80;38.98
66962;HTU21D;53897;51.126;5.868;2023-06-04T04:01:25;24.76;39.06
66962;HTU21D;53897;51.126;5.868;2023-06-04T04:03:52;24.74;39.10
66962;HTU21D;53897;51.126;5.868;2023-06-04T04:06:19;24.74;39.14
66962;HTU21D;53897;51.126;5.868;2023-06-04T04:08:45;24.71;39.19
66962;HTU21D;53897;51.126;5.868;2023-06-04T04:11:14;24.69;39.24
66962;HTU21D;53897;51.126;5.868;2023-06-04T04:13:41;24.66;39.30
66962;HTU21D;53897;51.126;5.868;2023-06-04T04:16:07;24.62;39.36
66962;HTU21D;53897;51.126;5.868;2023-06-04T04:18:35;24.62;39.41
66962;HTU21D;53897;51.126;5.868;2023-06-04T04:21:03;24.60;39.46
66962;HTU21D;53897;51.126;5.868;2023-06-04T04:23:30;24.61;39.45
66962;HTU21D;53897;51.126;5.868;2023-06-04T04:25:58;24.59;39.49
66962;HTU21D;53897;51.126;5.868;2023-06-04T04:28:25;24.57;39.52
66962;HTU21D;53897;51.126;5.868;2023-06-04T04:30:56;24.57;39.56
66962;HTU21D;53897;51.126;5.868;2023-06-04T04:33:23;24.55;39.59
66962;HTU21D;53897;51.126;5.868;2023-06-04T04:35:51;24.56;39.62
66962;HTU21D;53897;51.126;5.868;2023-06-04T04:38:20;24.56;39.64
66962;HTU21D;53897;51.126;5.868;2023-06-04T04:40:55;24.58;39.63
66962;HTU21D;53897;51.126;5.868;2023-06-04T04:43:32;24.59;39.59
66962;HTU21D;53897;51.126;5.868;2023-06-04T04:46:03;24.60;39.58
66962;HTU21D;53897;51.126;5.868;2023-06-04T04:48:29;24.62;39.59
66962;HTU21D;53897;51.126;5.868;2023-06-04T04:50:55;24.62;39.56
66962;HTU21D;53897;51.126;5.868;2023-06-04T04:53:21;24.63;39.53
66962;HTU21D;53897;51.126;5.868;2023-06-04T04:55:47;24.63;39.54
66962;HTU21D;53897;51.126;5.868;2023-06-04T04:58:14;24.64;39.54
66962;HTU21D;53897;51.126;5.868;2023-06-04T05:00:40;24.64;39.52
66962;HTU21D;53897;51.126;5.868;2023-06-04T05:03:06;24.63;39.56
66962;HTU21D;53897;51.126;5.868;2023-06-04T05:05:33;24.63;39.56
66962;HTU21D;53897;51.126;5.868;2023-06-04T05:08:00;24.63;39.58
66962;HTU21D;53897;51.126;5.868;2023-06-04T05:10:31;24.64;39.48
66962;HTU21D;53897;51.126;5.868;2023-06-04T05:12:59;24.65;39.36
66962;HTU21D;53897;51.126;5.868;2023-06-04T05:15:34;24.66;39.12
66962;HTU21D;53897;51.126;5.868;2023-06-04T05:18:00;24.65;39.05
66962;HTU21D;53897;51.126;5.868;2023-06-04T05:20:30;24.68;38.97
66962;HTU21D;53897;51.126;5.868;2023-06-04T05:22:56;24.68;38.80
66962;HTU21D;53897;51.126;5.868;2023-06-04T05:25:22;24.68;38.76
66962;HTU21D;53897;51.126;5.868;2023-06-04T05:27:48;24.66;38.65
66962;HTU21D;53897;51.126;5.868;2023-06-04T05:30:16;24.66;38.65
66962;HTU21D;53897;51.126;5.868;2023-06-04T05:32:42;24.66;38.73
66962;HTU21D;53897;51.126;5.868;2023-06-04T05:35:12;24.68;38.82
66962;HTU21D;53897;51.126;5.868;2023-06-04T05:37:39;24.68;38.86
66962;HTU21D;53897;51.126;5.868;2023-06-04T05:40:08;24.66;39.01
66962;HTU21D;53897;51.126;5.868;2023-06-04T05:42:35;24.64;39.20
66962;HTU21D;53897;51.126;5.868;2023-06-04T05:45:02;24.61;39.36
66962;HTU21D;53897;51.126;5.868;2023-06-04T05:47:28;24.60;39.52
66962;HTU21D;53897;51.126;5.868;2023-06-04T05:49:57;24.57;39.64
66962;HTU21D;53897;51.126;5.868;2023-06-04T05:52:23;24.57;39.75
66962;HTU21D;53897;51.126;5.868;2023-06-04T05:54:49;24.58;39.81
66962;HTU21D;53897;51.126;5.868;2023-06-04T05:57:16;24.59;39.85
66962;HTU21D;53897;51.126;5.868;2023-06-04T05:59:42;24.61;39.88
66962;HTU21D;53897;51.126;5.868;2023-06-04T06:02:11;24.61;39.96
66962;HTU21D;53897;51.126;5.868;2023-06-04T06:04:39;24.60;40.00
66962;HTU21D;53897;51.126;5.868;2023-06-04T06:07:05;24.61;40.04
66962;HTU21D;53897;51.126;5.868;2023-06-04T06:09:31;24.61;40.08
66962;HTU21D;53897;51.126;5.868;2023-06-04T06:11:57;24.59;40.13
66962;HTU21D;53897;51.126;5.868;2023-06-04T06:14:23;24.58;40.23
66962;HTU21D;53897;51.126;5.868;2023-06-04T06:16:50;24.58;40.30
66962;HTU21D;53897;51.126;5.868;2023-06-04T06:19:16;24.58;40.36
66962;HTU21D;53897;51.126;5.868;2023-06-04T06:21:42;24.57;40.40
66962;HTU21D;53897;51.126;5.868;2023-06-04T06:24:08;24.57;40.43
66962;HTU21D;53897;51.126;5.868;2023-06-04T06:26:34;24.55;40.46
66962;HTU21D;53897;51.126;5.868;2023-06-04T06:29:02;24.55;40.39
66962;HTU21D;53897;51.126;5.868;2023-06-04T06:31:28;24.56;40.33
66962;HTU21D;53897;51.126;5.868;2023-06-04T06:33:54;24.57;40.21
66962;HTU21D;53897;51.126;5.868;2023-06-04T06:36:20;24.58;40.06
66962;HTU21D;53897;51.126;5.868;2023-06-04T06:38:45;24.59;39.95
66962;HTU21D;53897;51.126;5.868;2023-06-04T06:41:12;24.61;39.86
66962;HTU21D;53897;51.126;5.868;2023-06-04T06:43:37;24.62;39.83
66962;HTU21D;53897;51.126;5.868;2023-06-04T06:46:03;24.61;39.85
66962;HTU21D;53897;51.126;5.868;2023-06-04T06:48:29;24.63;39.84
66962;HTU21D;53897;51.126;5.868;2023-06-04T06:50:55;24.64;39.82
66962;HTU21D;53897;51.126;5.868;2023-06-04T06:53:21;24.65;39.75
66962;HTU21D;53897;51.126;5.868;2023-06-04T06:55:46;24.66;39.74
66962;HTU21D;53897;51.126;5.868;2023-06-04T06:58:12;24.68;39.73
66962;HTU21D;53897;51.126;5.868;2023-06-04T07:00:38;24.68;39.72
66962;HTU21D;53897;51.126;5.868;2023-06-04T07:03:04;24.68;39.72
66962;HTU21D;53897;51.126;5.868;2023-06-04T07:05:30;24.69;39.71
66962;HTU21D;53897;51.126;5.868;2023-06-04T07:07:56;24.68;39.75
66962;HTU21D;53897;51.126;5.868;2023-06-04T07:10:23;24.70;39.77
66962;HTU21D;53897;51.126;5.868;2023-06-04T07:12:49;24.68;39.75
66962;HTU21D;53897;51.126;5.868;2023-06-04T07:15:16;24.68;39.76
66962;HTU21D;53897;51.126;5.868;2023-06-04T07:17:41;24.66;39.80
66962;HTU21D;53897;51.126;5.868;2023-06-04T07:20:07;24.63;39.91
66962;HTU21D;53897;51.126;5.868;2023-06-04T07:22:35;24.61;40.01
66962;HTU21D;53897;51.126;5.868;2023-06-04T07:25:01;24.62;40.02
66962;HTU21D;53897;51.126;5.868;2023-06-04T07:27:26;24.63;40.05
66962;HTU21D;53897;51.126;5.868;2023-06-04T07:29:52;24.62;40.13
66962;HTU21D;53897;51.126;5.868;2023-06-04T07:32:18;24.63;40.19
66962;HTU21D;53897;51.126;5.868;2023-06-04T07:34:44;24.64;40.16
66962;HTU21D;53897;51.126;5.868;2023-06-04T07:37:10;24.65;40.20
66962;HTU21D;53897;51.126;5.868;2023-06-04T07:39:36;24.66;40.23
66962;HTU21D;53897;51.126;5.868;2023-06-04T07:42:03;24.69;40.20
66962;HTU21D;53897;51.126;5.868;2023-06-04T07:44:29;24.71;40.25
66962;HTU21D;53897;51.126;5.868;2023-06-04T07:46:55;24.71;40.28
66962;HTU21D;53897;51.126;5.868;2023-06-04T07:49:21;24.73;40.28
66962;HTU21D;53897;51.126;5.868;2023-06-04T07:51:47;24.74;40.34
66962;HTU21D;53897;51.126;5.868;2023-06-04T07:54:13;24.75;40.23
66962;HTU21D;53897;51.126;5.868;2023-06-04T07:56:40;24.77;40.28
66962;HTU21D;53897;51.126;5.868;2023-06-04T07:59:05;24.77;40.25
66962;HTU21D;53897;51.126;5.868;2023-06-04T08:01:31;24.77;40.17
66962;HTU21D;53897;51.126;5.868;2023-06-04T08:03:57;24.78;40.16
66962;HTU21D;53897;51.126;5.868;2023-06-04T08:06:25;24.80;40.23
66962;HTU21D;53897;51.126;5.868;2023-06-04T08:08:52;24.80;40.26
66962;HTU21D;53897;51.126;5.868;2023-06-04T08:11:18;24.82;40.30
66962;HTU21D;53897;51.126;5.868;2023-06-04T08:13:44;24.83;40.25
66962;HTU21D;53897;51.126;5.868;2023-06-04T08:16:10;24.83;40.22
66962;HTU21D;53897;51.126;5.868;2023-06-04T08:18:56;24.85;40.17
66962;HTU21D;53897;51.126;5.868;2023-06-04T08:21:34;24.86;40.14
66962;HTU21D;53897;51.126;5.868;2023-06-04T08:24:08;24.87;40.13
66962;HTU21D;53897;51.126;5.868;2023-06-04T08:26:53;24.88;40.05
66962;HTU21D;53897;51.126;5.868;2023-06-04T08:29:29;24.88;40.01
66962;HTU21D;53897;51.126;5.868;2023-06-04T08:31:55;24.87;40.00
66962;HTU21D;53897;51.126;5.868;2023-06-04T08:34:25;24.85;40.10
66962;HTU21D;53897;51.126;5.868;2023-06-04T08:36:51;24.82;40.20
66962;HTU21D;53897;51.126;5.868;2023-06-04T08:39:17;24.82;40.27
66962;HTU21D;53897;51.126;5.868;2023-06-04T08:41:46;24.83;40.30
66962;HTU21D;53897;51.126;5.868;2023-06-04T08:44:16;24.84;40.15
66962;HTU21D;53897;51.126;5.868;2023-06-04T08:46:43;24.85;40.09
66962;HTU21D;53897;51.126;5.868;2023-06-04T08:49:12;24.87;39.97
66962;HTU21D;53897;51.126;5.868;2023-06-04T08:51:39;24.88;39.87
66962;HTU21D;53897;51.126;5.868;2023-06-04T08:54:06;24.89;39.79
66962;HTU21D;53897;51.126;5.868;2023-06-04T08:56:36;24.89;39.78
66962;HTU21D;53897;51.126;5.868;2023-06-04T08:59:04;24.91;39.72
66962;HTU21D;53897;51.126;5.868;2023-06-04T09:01:31;24.92;39.68
66962;HTU21D;53897;51.126;5.868;2023-06-04T09:03:59;24.93;39.68
66962;HTU21D;53897;51.126;5.868;2023-06-04T09:06:26;24.93;39.69
66962;HTU21D;53897;51.126;5.868;2023-06-04T09:08:56;24.97;39.79
66962;HTU21D;53897;51.126;5.868;2023-06-04T09:11:27;24.97;39.79
66962;HTU21D;53897;51.126;5.868;2023-06-04T09:13:59;24.98;39.75
66962;HTU21D;53897;51.126;5.868;2023-06-04T09:16:25;24.99;39.76
66962;HTU21D;53897;51.126;5.868;2023-06-04T09:18:53;25.01;39.77
66962;HTU21D;53897;51.126;5.868;2023-06-04T09:21:18;25.00;39.80
66962;HTU21D;53897;51.126;5.868;2023-06-04T09:23:46;25.03;39.79
66962;HTU21D;53897;51.126;5.868;2023-06-04T09:26:13;25.03;39.76
66962;HTU21D;53897;51.126;5.868;2023-06-04T09:28:43;25.04;39.74
66962;HTU21D;53897;51.126;5.868;2023-06-04T09:31:10;25.04;39.81
66962;HTU21D;53897;51.126;5.868;2023-06-04T09:33:46;25.06;39.86
66962;HTU21D;53897;51.126;5.868;2023-06-04T09:36:12;25.06;39.80
66962;HTU21D;53897;51.126;5.868;2023-06-04T09:38:39;25.08;39.81
66962;HTU21D;53897;51.126;5.868;2023-06-04T09:41:17;25.09;39.80
66962;HTU21D;53897;51.126;5.868;2023-06-04T09:43:47;25.10;39.79
66962;HTU21D;53897;51.126;5.868;2023-06-04T09:46:17;25.09;39.79
66962;HTU21D;53897;51.126;5.868;2023-06-04T09:48:44;25.13;39.79
66962;HTU21D;53897;51.126;5.868;2023-06-04T09:51:15;25.14;39.80
66962;HTU21D;53897;51.126;5.868;2023-06-04T09:53:41;25.12;39.88
66962;HTU21D;53897;51.126;5.868;2023-06-04T09:56:08;25.14;39.91
66962;HTU21D;53897;51.126;5.868;2023-06-04T09:58:38;25.13;40.01
66962;HTU21D;53897;51.126;5.868;2023-06-04T10:01:05;25.14;40.00
66962;HTU21D;53897;51.126;5.868;2023-06-04T10:03:34;25.17;40.09
66962;HTU21D;53897;51.126;5.868;2023-06-04T10:06:03;25.17;40.08
66962;HTU21D;53897;51.126;5.868;2023-06-04T10:08:30;25.19;40.23
66962;HTU21D;53897;51.126;5.868;2023-06-04T10:11:00;25.19;40.51
66962;HTU21D;53897;51.126;5.868;2023-06-04T10:13:29;25.21;40.41
66962;HTU21D;53897;51.126;5.868;2023-06-04T10:15:59;25.23;40.43
66962;HTU21D;53897;51.126;5.868;2023-06-04T10:18:29;25.24;40.39
66962;HTU21D;53897;51.126;5.868;2023-06-04T10:20:57;25.25;40.40
66962;HTU21D;53897;51.126;5.868;2023-06-04T10:23:24;25.28;40.23
66962;HTU21D;53897;51.126;5.868;2023-06-04T10:25:51;25.31;40.27
66962;HTU21D;53897;51.126;5.868;2023-06-04T10:28:19;25.31;40.24
66962;HTU21D;53897;51.126;5.868;2023-06-04T10:30:49;25.32;40.17
66962;HTU21D;53897;51.126;5.868;2023-06-04T10:33:19;25.34;40.17
66962;HTU21D;53897;51.126;5.868;2023-06-04T10:35:46;25.34;40.20
66962;HTU21D;53897;51.126;5.868;2023-06-04T10:38:14;25.35;40.22
66962;HTU21D;53897;51.126;5.868;2023-06-04T10:40:42;25.35;40.26
66962;HTU21D;53897;51.126;5.868;2023-06-04T10:43:14;25.36;40.17
66962;HTU21D;53897;51.126;5.868;2023-06-04T10:45:42;25.37;40.11
66962;HTU21D;53897;51.126;5.868;2023-06-04T10:48:10;25.40;40.07
66962;HTU21D;53897;51.126;5.868;2023-06-04T10:50:49;25.40;40.08
66962;HTU21D;53897;51.126;5.868;2023-06-04T10:53:17;25.40;40.00
66962;HTU21D;53897;51.126;5.868;2023-06-04T10:55:46;25.40;40.09
66962;HTU21D;53897;51.126;5.868;2023-06-04T10:58:13;25.38;40.25
66962;HTU21D;53897;51.126;5.868;2023-06-04T11:00:43;25.37;40.39
66962;HTU21D;53897;51.126;5.868;2023-06-04T11:03:12;25.36;40.45
66962;HTU21D;53897;51.126;5.868;2023-06-04T11:05:46;25.38;40.46
66962;HTU21D;53897;51.126;5.868;2023-06-04T11:08:14;25.40;40.41
66962;HTU21D;53897;51.126;5.868;2023-06-04T11:10:45;25.42;40.42
66962;HTU21D;53897;51.126;5.868;2023-06-04T11:13:12;25.44;40.46
66962;HTU21D;53897;51.126;5.868;2023-06-04T11:15:45;25.46;40.48
66962;HTU21D;53897;51.126;5.868;2023-06-04T11:18:19;25.47;40.55
66962;HTU21D;53897;51.126;5.868;2023-06-04T11:20:48;25.49;40.57
66962;HTU21D;53897;51.126;5.868;2023-06-04T11:23:15;25.50;40.59
66962;HTU21D;53897;51.126;5.868;2023-06-04T11:25:42;25.52;40.61
66962;HTU21D;53897;51.126;5.868;2023-06-04T11:28:15;25.52;40.62
66962;HTU21D;53897;51.126;5.868;2023-06-04T11:30:42;25.56;40.63
66962;HTU21D;53897;51.126;5.868;2023-06-04T11:33:08;25.56;40.64
66962;HTU21D;53897;51.126;5.868;2023-06-04T11:35:41;25.57;40.65
66962;HTU21D;53897;51.126;5.868;2023-06-04T11:38:08;25.59;40.66
66962;HTU21D;53897;51.126;5.868;2023-06-04T11:40:34;25.59;40.65
66962;HTU21D;53897;51.126;5.868;2023-06-04T11:43:01;25.60;40.59
66962;HTU21D;53897;51.126;5.868;2023-06-04T11:45:27;25.60;40.52
66962;HTU21D;53897;51.126;5.868;2023-06-04T11:47:56;25.62;40.49
66962;HTU21D;53897;51.126;5.868;2023-06-04T11:50:26;25.61;40.51
66962;HTU21D;53897;51.126;5.868;2023-06-04T11:52:53;25.62;40.97
66962;HTU21D;53897;51.126;5.868;2023-06-04T11:55:19;25.65;41.84
66962;HTU21D;53897;51.126;5.868;2023-06-04T11:57:49;25.66;43.23
66962;HTU21D;53897;51.126;5.868;2023-06-04T12:00:16;25.67;44.03
66962;HTU21D;53897;51.126;5.868;2023-06-04T12:02:53;25.68;43.68
66962;HTU21D;53897;51.126;5.868;2023-06-04T12:05:20;25.69;43.63
66962;HTU21D;53897;51.126;5.868;2023-06-04T12:07:48;25.71;43.15
66962;HTU21D;53897;51.126;5.868;2023-06-04T12:10:20;25.73;43.03
66962;HTU21D;53897;51.126;5.868;2023-06-04T12:12:46;25.73;42.98
66962;HTU21D;53897;51.126;5.868;2023-06-04T12:15:12;25.74;42.87
66962;HTU21D;53897;51.126;5.868;2023-06-04T12:17:54;25.75;42.90
66962;HTU21D;53897;51.126;5.868;2023-06-04T12:20:37;25.77;42.87
66962;HTU21D;53897;51.126;5.868;2023-06-04T12:23:04;25.77;42.81
66962;HTU21D;53897;51.126;5.868;2023-06-04T12:25:32;25.78;42.72
66962;HTU21D;53897;51.126;5.868;2023-06-04T12:27:58;25.78;42.68
66962;HTU21D;53897;51.126;5.868;2023-06-04T12:30:38;25.79;42.62
66962;HTU21D;53897;51.126;5.868;2023-06-04T12:33:03;25.81;42.55
66962;HTU21D;53897;51.126;5.868;2023-06-04T12:35:29;25.80;42.51
66962;HTU21D;53897;51.126;5.868;2023-06-04T12:37:55;25.82;42.43
66962;HTU21D;53897;51.126;5.868;2023-06-04T12:40:21;25.81;42.38
66962;HTU21D;53897;51.126;5.868;2023-06-04T12:42:50;25.83;42.33
66962;HTU21D;53897;51.126;5.868;2023-06-04T12:45:15;25.84;42.26
66962;HTU21D;53897;51.126;5.868;2023-06-04T12:47:42;25.84;42.24
66962;HTU21D;53897;51.126;5.868;2023-06-04T12:50:08;25.86;42.19
66962;HTU21D;53897;51.126;5.868;2023-06-04T12:52:34;25.87;42.16
66962;HTU21D;53897;51.126;5.868;2023-06-04T12:55:00;25.88;42.13
66962;HTU21D;53897;51.126;5.868;2023-06-04T12:57:25;25.88;42.07
66962;HTU21D;53897;51.126;5.868;2023-06-04T12:59:51;25.88;42.04
66962;HTU21D;53897;51.126;5.868;2023-06-04T13:02:17;25.91;42.00
66962;HTU21D;53897;51.126;5.868;2023-06-04T13:04:43;25.90;41.98
66962;HTU21D;53897;51.126;5.868;2023-06-04T13:07:11;25.91;41.98
66962;HTU21D;53897;51.126;5.868;2023-06-04T13:09:37;25.92;41.94
66962;HTU21D;53897;51.126;5.868;2023-06-04T13:12:03;25.92;41.91
66962;HTU21D;53897;51.126;5.868;2023-06-04T13:14:30;25.92;41.89
66962;HTU21D;53897;51.126;5.868;2023-06-04T13:16:59;25.94;41.80
66962;HTU21D;53897;51.126;5.868;2023-06-04T13:19:25;25.94;41.80
66962;HTU21D;53897;51.126;5.868;2023-06-04T13:21:51;25.95;41.84
66962;HTU21D;53897;51.126;5.868;2023-06-04T13:24:16;25.95;41.81
66962;HTU21D;53897;51.126;5.868;2023-06-04T13:26:44;25.95;41.84
66962;HTU21D;53897;51.126;5.868;2023-06-04T13:29:10;25.95;41.74
66962;HTU21D;53897;51.126;5.868;2023-06-04T13:31:37;25.97;41.71
66962;HTU21D;53897;51.126;5.868;2023-06-04T13:34:04;25.97;41.71
66962;HTU21D;53897;51.126;5.868;2023-06-04T13:36:30;25.98;41.68
66962;HTU21D;53897;51.126;5.868;2023-06-04T13:38:56;25.98;41.43
66962;HTU21D;53897;51.126;5.868;2023-06-04T13:41:21;25.99;41.20
66962;HTU21D;53897;51.126;5.868;2023-06-04T13:43:47;25.99;41.21
66962;HTU21D;53897;51.126;5.868;2023-06-04T13:46:13;26.01;41.26
66962;HTU21D;53897;51.126;5.868;2023-06-04T13:48:39;26.02;41.29
66962;HTU21D;53897;51.126;5.868;2023-06-04T13:51:04;26.02;41.26
66962;HTU21D;53897;51.126;5.868;2023-06-04T13:53:30;26.02;41.25
66962;HTU21D;53897;51.126;5.868;2023-06-04T13:55:56;26.02;41.27
66962;HTU21D;53897;51.126;5.868;2023-06-04T13:58:27;26.02;41.26
66962;HTU21D;53897;51.126;5.868;2023-06-04T14:00:53;26.02;41.26
66962;HTU21D;53897;51.126;5.868;2023-06-04T14:03:19;26.02;41.29
66962;HTU21D;53897;51.126;5.868;2023-06-04T14:05:45;26.03;41.30
66962;HTU21D;53897;51.126;5.868;2023-06-04T14:08:11;26.04;41.30
66962;HTU21D;53897;51.126;5.868;2023-06-04T14:10:37;26.05;41.33
66962;HTU21D;53897;51.126;5.868;2023-06-04T14:13:07;26.06;41.33
66962;HTU21D;53897;51.126;5.868;2023-06-04T14:15:33;26.06;41.33
66962;HTU21D;53897;51.126;5.868;2023-06-04T14:17:59;26.07;41.30
66962;HTU21D;53897;51.126;5.868;2023-06-04T14:20:25;26.07;41.31
66962;HTU21D;53897;51.126;5.868;2023-06-04T14:22:51;26.06;41.33
66962;HTU21D;53897;51.126;5.868;2023-06-04T14:25:16;26.08;41.26
66962;HTU21D;53897;51.126;5.868;2023-06-04T14:27:42;26.08;41.23
66962;HTU21D;53897;51.126;5.868;2023-06-04T14:30:09;26.07;41.26
66962;HTU21D;53897;51.126;5.868;2023-06-04T14:32:36;26.09;41.25
66962;HTU21D;53897;51.126;5.868;2023-06-04T14:35:01;26.09;41.25
66962;HTU21D;53897;51.126;5.868;2023-06-04T14:37:27;26.10;41.23
66962;HTU21D;53897;51.126;5.868;2023-06-04T14:39:53;26.10;41.22
66962;HTU21D;53897;51.126;5.868;2023-06-04T14:42:19;26.11;41.23
66962;HTU21D;53897;51.126;5.868;2023-06-04T14:44:45;26.10;41.20
66962;HTU21D;53897;51.126;5.868;2023-06-04T14:47:11;26.11;41.20
66962;HTU21D;53897;51.126;5.868;2023-06-04T14:49:37;26.11;41.19
66962;HTU21D;53897;51.126;5.868;2023-06-04T14:52:03;26.10;40.78
66962;HTU21D;53897;51.126;5.868;2023-06-04T14:54:28;26.11;40.99
66962;HTU21D;53897;51.126;5.868;2023-06-04T14:56:55;26.11;41.04
66962;HTU21D;53897;51.126;5.868;2023-06-04T14:59:21;26.10;41.16
66962;HTU21D;53897;51.126;5.868;2023-06-04T15:01:46;26.11;41.13
66962;HTU21D;53897;51.126;5.868;2023-06-04T15:04:12;26.11;41.14
66962;HTU21D;53897;51.126;5.868;2023-06-04T15:06:38;26.09;41.26
66962;HTU21D;53897;51.126;5.868;2023-06-04T15:09:04;26.07;41.36
66962;HTU21D;53897;51.126;5.868;2023-06-04T15:11:29;26.07;41.33
66962;HTU21D;53897;51.126;5.868;2023-06-04T15:13:55;26.07;41.32
66962;HTU21D;53897;51.126;5.868;2023-06-04T15:16:21;26.07;41.26
66962;HTU21D;53897;51.126;5.868;2023-06-04T15:18:48;26.08;41.24
66962;HTU21D;53897;51.126;5.868;2023-06-04T15:21:14;26.09;41.23